createdAt,value
2023-05-05T00:00:59.171Z,104.00
2023-05-05T00:01:59.201Z,105.75
2023-05-05T00:02:59.262Z,105.13
2023-05-05T00:03:59.283Z,106.95
2023-05-05T00:04:59.158Z,104.62
2023-05-05T00:05:59.170Z,105.94
2023-05-05T00:06:59.150Z,104.80
2023-05-05T00:07:59.142Z,104.50
2023-05-05T00:08:59.132Z,103.30
2023-05-05T00:09:59.152Z,103.68
2023-05-05T00:10:59.127Z,103.07
2023-05-05T00:11:59.096Z,105.22
2023-05-05T00:12:59.121Z,105.09
2023-05-05T00:13:59.105Z,103.07
2023-05-05T00:14:59.127Z,103.96
2023-05-05T00:15:59.121Z,102.77
2023-05-05T00:16:59.129Z,101.93
2023-05-05T00:17:59.088Z,104.29
2023-05-05T00:18:59.060Z,103.43
2023-05-05T00:19:59.082Z,103.76
2023-05-05T00:20:59.076Z,102.43
2023-05-05T00:21:59.081Z,103.95
2023-05-05T00:22:59.055Z,103.07
2023-05-05T00:23:59.041Z,102.39
2023-05-05T00:24:59.044Z,100.61
2023-05-05T00:25:59.014Z,104.56
2023-05-05T00:26:59.028Z,102.41
2023-05-05T00:27:59.022Z,102.34
2023-05-05T00:28:59.015Z,102.69
2023-05-05T00:29:58.993Z,101.37
2023-05-05T00:30:59.025Z,102.75
2023-05-05T00:31:59.008Z,102.37
2023-05-05T00:32:59.005Z,102.96
2023-05-05T00:33:58.987Z,100.90
2023-05-05T00:34:58.997Z,101.65
2023-05-05T00:35:59.031Z,100.29
2023-05-05T00:36:58.974Z,101.24
2023-05-05T00:37:58.939Z,99.08
2023-05-05T00:38:58.938Z,101.31
2023-05-05T00:39:58.940Z,100.67
2023-05-05T00:40:58.964Z,99.98
2023-05-05T00:41:58.923Z,99.71
2023-05-05T00:42:58.938Z,100.67
2023-05-05T00:43:58.934Z,100.61
2023-05-05T00:44:58.908Z,100.95
2023-05-05T00:45:58.999Z,101.12
2023-05-05T00:46:58.906Z,100.19
2023-05-05T00:47:58.934Z,98.57
2023-05-05T00:48:58.906Z,97.98
2023-05-05T00:49:58.874Z,98.84
2023-05-05T00:50:58.885Z,98.25
2023-05-05T00:51:58.865Z,98.31
2023-05-05T00:52:58.867Z,98.11
2023-05-05T00:53:58.889Z,97.67
2023-05-05T00:54:58.834Z,97.28
2023-05-05T00:55:58.863Z,97.70
2023-05-05T00:56:58.807Z,97.22
2023-05-05T00:57:58.805Z,98.32
2023-05-05T00:58:58.803Z,97.19
2023-05-05T00:59:58.815Z,94.21
2023-05-05T01:00:58.843Z,97.80
2023-05-05T01:01:58.824Z,96.24
2023-05-05T01:02:58.891Z,96.99
2023-05-05T01:03:58.884Z,97.40
2023-05-05T01:04:58.785Z,97.33
2023-05-05T01:05:58.758Z,97.40
2023-05-05T01:06:58.761Z,96.77
2023-05-05T01:07:58.759Z,95.30
2023-05-05T01:08:58.757Z,96.57
2023-05-05T01:10:15.079Z,95.27
2023-05-05T01:10:59.758Z,95.51
2023-05-05T01:11:58.751Z,95.92
2023-05-05T01:12:58.785Z,95.87
2023-05-05T01:13:58.768Z,97.02
2023-05-05T01:14:58.711Z,97.15
2023-05-05T01:15:58.741Z,97.05
2023-05-05T01:16:58.702Z,97.16
2023-05-05T01:17:58.766Z,98.02
2023-05-05T01:18:58.686Z,97.04
2023-05-05T01:19:58.709Z,95.39
2023-05-05T01:20:58.692Z,93.85
2023-05-05T01:21:58.660Z,95.74
2023-05-05T01:22:58.667Z,94.87
2023-05-05T01:23:58.658Z,94.82
2023-05-05T01:24:58.643Z,93.47
2023-05-05T01:25:58.633Z,93.22
2023-05-05T01:26:58.644Z,94.21
2023-05-05T01:27:58.694Z,95.50
2023-05-05T01:28:58.698Z,95.05
2023-05-05T01:29:58.704Z,93.14
2023-05-05T01:30:58.712Z,94.66
2023-05-05T01:31:58.759Z,92.71
2023-05-05T01:32:58.695Z,94.36
2023-05-05T01:33:58.725Z,94.47
2023-05-05T01:34:58.704Z,93.78
2023-05-05T01:35:58.757Z,92.76
2023-05-05T01:36:58.711Z,94.58
2023-05-05T01:37:58.738Z,95.80
2023-05-05T01:38:58.757Z,95.43
2023-05-05T01:39:58.751Z,94.12
2023-05-05T01:40:58.791Z,94.02
2023-05-05T01:41:58.743Z,92.97
2023-05-05T01:42:58.770Z,92.91
2023-05-05T01:43:58.887Z,93.39
2023-05-05T01:44:58.970Z,92.08
2023-05-05T01:45:59.102Z,91.42
2023-05-05T01:46:59.055Z,93.99
2023-05-05T01:47:59.120Z,91.61
2023-05-05T01:48:59.096Z,91.40
2023-05-05T01:49:59.113Z,91.89
2023-05-05T01:50:59.101Z,91.49
2023-05-05T01:51:59.178Z,92.09
2023-05-05T01:52:59.169Z,90.91
2023-05-05T01:53:59.160Z,91.38
2023-05-05T01:54:59.192Z,89.59
2023-05-05T01:55:59.198Z,91.01
2023-05-05T01:56:59.210Z,89.71
2023-05-05T01:57:59.280Z,91.78
2023-05-05T01:58:59.262Z,92.57
2023-05-05T01:59:59.307Z,91.57
2023-05-05T02:00:59.348Z,92.82
2023-05-05T02:01:59.312Z,93.30
2023-05-05T02:02:59.368Z,91.37
2023-05-05T02:03:59.371Z,90.81
2023-05-05T02:04:59.491Z,92.81
2023-05-05T02:05:59.520Z,91.67
2023-05-05T02:06:59.546Z,90.61
2023-05-05T02:07:59.496Z,90.17
2023-05-05T02:08:59.504Z,90.90
2023-05-05T02:09:59.512Z,90.63
2023-05-05T02:10:59.524Z,89.87
2023-05-05T02:11:59.511Z,88.91
2023-05-05T02:12:59.565Z,87.84
2023-05-05T02:13:59.628Z,87.10
2023-05-05T02:14:59.635Z,87.28
2023-05-05T02:15:59.780Z,88.74
2023-05-05T02:16:59.842Z,89.00
2023-05-05T02:17:59.967Z,89.87
2023-05-05T02:18:59.948Z,86.57
2023-05-05T02:19:59.970Z,88.34
2023-05-05T02:20:59.958Z,87.96
2023-05-05T02:21:59.992Z,86.69
2023-05-05T02:23:00.024Z,86.10
2023-05-05T02:24:00.141Z,87.25
2023-05-05T02:25:00.188Z,85.60
2023-05-05T02:26:00.195Z,86.29
2023-05-05T02:27:00.197Z,88.07
2023-05-05T02:28:00.254Z,86.58
2023-05-05T02:29:00.245Z,85.92
2023-05-05T02:30:00.244Z,86.86
2023-05-05T02:31:00.419Z,86.18
2023-05-05T02:32:00.350Z,86.97
2023-05-05T02:33:00.422Z,85.85
2023-05-05T02:34:00.378Z,87.39
2023-05-05T02:35:00.398Z,86.66
2023-05-05T02:36:00.430Z,88.18
2023-05-05T02:37:00.519Z,85.48
2023-05-05T02:38:00.528Z,85.71
2023-05-05T02:39:00.531Z,87.25
2023-05-05T02:40:00.532Z,84.86
2023-05-05T02:41:00.585Z,84.72
2023-05-05T02:42:00.582Z,85.33
2023-05-05T02:43:00.623Z,85.78
2023-05-05T02:44:00.619Z,86.93
2023-05-05T02:45:00.612Z,83.92
2023-05-05T02:46:00.695Z,86.88
2023-05-05T02:47:00.663Z,84.22
2023-05-05T02:48:00.666Z,85.68
2023-05-05T02:49:00.669Z,85.21
2023-05-05T02:50:00.696Z,86.82
2023-05-05T02:51:00.705Z,86.90
2023-05-05T02:52:00.703Z,87.24
2023-05-05T02:53:00.720Z,85.68
2023-05-05T02:54:00.711Z,85.15
2023-05-05T02:55:00.849Z,86.77
2023-05-05T02:56:01.773Z,88.18
2023-05-05T02:57:00.743Z,85.81
2023-05-05T02:58:00.781Z,85.31
2023-05-05T02:59:00.773Z,87.30
2023-05-05T03:00:00.821Z,86.06
2023-05-05T03:01:00.828Z,85.04
2023-05-05T03:02:00.841Z,86.77
2023-05-05T03:03:00.985Z,84.15
2023-05-05T03:04:00.876Z,84.27
2023-05-05T03:05:00.887Z,83.80
2023-05-05T03:06:00.864Z,84.20
2023-05-05T03:07:00.867Z,84.23
2023-05-05T03:08:00.891Z,83.63
2023-05-05T03:09:00.905Z,82.87
2023-05-05T03:10:00.885Z,81.12
2023-05-05T03:11:00.934Z,84.26
2023-05-05T03:12:00.929Z,82.14
2023-05-05T03:13:01.084Z,81.62
2023-05-05T03:14:01.011Z,82.71
2023-05-05T03:15:01.025Z,82.60
2023-05-05T03:16:01.080Z,83.91
2023-05-05T03:17:01.064Z,83.60
2023-05-05T03:18:01.121Z,83.87
2023-05-05T03:19:01.105Z,82.06
2023-05-05T03:20:04.754Z,83.60
2023-05-05T03:21:01.100Z,84.20
2023-05-05T03:22:01.104Z,84.38
2023-05-05T03:23:01.104Z,82.14
2023-05-05T03:24:01.084Z,82.94
2023-05-05T03:25:01.067Z,85.35
2023-05-05T03:26:01.083Z,81.53
2023-05-05T03:27:01.049Z,81.13
2023-05-05T03:28:01.032Z,81.49
2023-05-05T03:29:01.058Z,80.20
2023-05-05T03:30:01.037Z,80.65
2023-05-05T03:31:01.014Z,80.92
2023-05-05T03:32:01.118Z,81.44
2023-05-05T03:33:01.095Z,82.47
2023-05-05T03:34:01.014Z,80.30
2023-05-05T03:35:00.999Z,81.04
2023-05-05T03:36:01.004Z,82.85
2023-05-05T03:37:01.003Z,81.28
2023-05-05T03:38:00.979Z,80.93
2023-05-05T03:39:00.991Z,80.64
2023-05-05T03:40:00.967Z,81.87
2023-05-05T03:41:00.948Z,80.64
2023-05-05T03:42:00.964Z,79.47
2023-05-05T03:43:00.952Z,79.31
2023-05-05T03:44:00.926Z,81.24
2023-05-05T03:45:00.949Z,80.60
2023-05-05T03:46:00.953Z,80.67
2023-05-05T03:47:00.923Z,80.02
2023-05-05T03:48:00.936Z,80.46
2023-05-05T03:49:00.939Z,79.26
2023-05-05T03:50:00.937Z,78.59
2023-05-05T03:51:00.919Z,78.50
2023-05-05T03:52:00.885Z,80.72
2023-05-05T03:53:00.901Z,78.60
2023-05-05T03:54:00.881Z,81.36
2023-05-05T03:55:00.909Z,80.23
2023-05-05T03:56:02.020Z,79.72
2023-05-05T03:57:00.850Z,80.17
2023-05-05T03:58:00.860Z,79.30
2023-05-05T03:59:00.941Z,78.11
2023-05-05T04:00:00.854Z,79.30
2023-05-05T04:01:00.871Z,79.24
2023-05-05T04:02:00.862Z,79.35
2023-05-05T04:03:00.961Z,77.52
2023-05-05T04:04:00.876Z,79.46
2023-05-05T04:05:00.832Z,77.32
2023-05-05T04:06:00.813Z,76.75
2023-05-05T04:07:00.782Z,80.63
2023-05-05T04:08:00.806Z,77.73
2023-05-05T04:09:00.803Z,76.44
2023-05-05T04:10:00.800Z,76.71
2023-05-05T04:11:00.781Z,78.05
2023-05-05T04:12:00.789Z,76.34
2023-05-05T04:13:00.909Z,75.81
2023-05-05T04:14:00.753Z,76.21
2023-05-05T04:15:00.768Z,75.69
2023-05-05T04:16:00.783Z,76.40
2023-05-05T04:17:00.750Z,73.88
2023-05-05T04:18:00.771Z,76.02
2023-05-05T04:19:00.756Z,74.32
2023-05-05T04:20:00.749Z,75.90
2023-05-05T04:21:00.705Z,76.60
2023-05-05T04:22:00.730Z,75.23
2023-05-05T04:23:00.687Z,75.71
2023-05-05T04:24:00.705Z,73.51
2023-05-05T04:25:00.696Z,73.83
2023-05-05T04:26:00.700Z,74.17
2023-05-05T04:27:00.691Z,75.28
2023-05-05T04:28:00.650Z,73.63
2023-05-05T04:29:00.680Z,74.02
2023-05-05T04:30:00.659Z,74.97
2023-05-05T04:31:00.708Z,75.91
2023-05-05T04:32:00.661Z,76.22
2023-05-05T04:33:00.648Z,75.86
2023-05-05T04:34:00.648Z,75.01
2023-05-05T04:35:00.646Z,74.69
2023-05-05T04:36:00.629Z,75.32
2023-05-05T04:37:00.654Z,74.98
2023-05-05T04:38:00.598Z,75.04
2023-05-05T04:39:00.687Z,75.88
2023-05-05T04:40:00.606Z,74.02
2023-05-05T04:41:00.588Z,74.25
2023-05-05T04:42:00.592Z,75.60
2023-05-05T04:43:00.609Z,75.10
2023-05-05T04:44:00.587Z,76.37
2023-05-05T04:45:00.557Z,74.75
2023-05-05T04:46:00.572Z,74.90
2023-05-05T04:47:00.532Z,73.15
2023-05-05T04:48:00.614Z,72.04
2023-05-05T04:49:00.555Z,70.34
2023-05-05T04:50:00.552Z,70.72
2023-05-05T04:51:00.570Z,69.63
2023-05-05T04:52:00.506Z,68.64
2023-05-05T04:53:00.514Z,66.47
2023-05-05T04:54:00.519Z,69.38
2023-05-05T04:55:00.478Z,67.76
2023-05-05T04:56:00.510Z,71.09
2023-05-05T04:57:00.483Z,71.07
2023-05-05T04:58:00.500Z,71.70
2023-05-05T04:59:00.440Z,73.36
2023-05-05T05:00:00.469Z,73.56
2023-05-05T05:01:00.486Z,75.04
2023-05-05T05:02:00.550Z,77.08
2023-05-05T05:03:00.639Z,76.61
2023-05-05T05:04:00.647Z,77.51
2023-05-05T05:05:00.580Z,80.62
2023-05-05T05:06:00.677Z,79.12
2023-05-05T05:07:00.703Z,80.15
2023-05-05T05:08:00.731Z,81.29
2023-05-05T05:09:00.761Z,82.10
2023-05-05T05:10:00.842Z,80.51
2023-05-05T05:11:00.840Z,86.25
2023-05-05T05:12:00.897Z,85.18
2023-05-05T05:13:00.932Z,84.91
2023-05-05T05:14:00.979Z,84.47
2023-05-05T05:15:01.017Z,87.14
2023-05-05T05:16:01.112Z,90.67
2023-05-05T05:17:01.102Z,87.08
2023-05-05T05:18:01.136Z,91.25
2023-05-05T05:19:01.743Z,91.37
2023-05-05T05:20:01.240Z,90.84
2023-05-05T05:21:01.222Z,94.38
2023-05-05T05:22:01.255Z,92.71
2023-05-05T05:23:01.312Z,95.27
2023-05-05T05:24:01.344Z,96.00
2023-05-05T05:25:01.398Z,93.41
2023-05-05T05:26:01.393Z,94.90
2023-05-05T05:27:01.464Z,95.19
2023-05-05T05:28:09.028Z,93.98
2023-05-05T05:29:02.480Z,94.23
2023-05-05T05:30:01.537Z,95.15
2023-05-05T05:31:01.550Z,95.54
2023-05-05T05:32:01.492Z,96.44
2023-05-05T05:33:01.489Z,97.06
2023-05-05T05:34:01.440Z,96.78
2023-05-05T05:35:01.473Z,95.57
2023-05-05T05:36:01.422Z,95.85
2023-05-05T05:37:01.444Z,96.89
2023-05-05T05:38:01.416Z,94.65
2023-05-05T05:39:01.427Z,98.36
2023-05-05T05:40:01.434Z,94.85
2023-05-05T05:41:01.455Z,99.64
2023-05-05T05:42:01.474Z,95.69
2023-05-05T05:43:01.564Z,99.40
2023-05-05T05:44:01.603Z,103.54
2023-05-05T05:45:01.667Z,109.42
2023-05-05T05:46:01.755Z,104.90
2023-05-05T05:47:01.753Z,107.27
2023-05-05T05:48:01.834Z,115.60
2023-05-05T05:49:01.820Z,115.95
2023-05-05T05:50:01.867Z,116.86
2023-05-05T05:51:01.898Z,121.81
2023-05-05T05:52:02.074Z,121.94
2023-05-05T05:53:01.948Z,125.55
2023-05-05T05:54:01.975Z,133.00
2023-05-05T05:55:02.084Z,135.21
2023-05-05T05:56:02.000Z,148.15
2023-05-05T05:57:02.035Z,144.07
2023-05-05T05:58:03.030Z,150.21
2023-05-05T05:59:02.061Z,151.89
2023-05-05T06:00:02.392Z,155.73
2023-05-05T06:01:02.066Z,157.50
2023-05-05T06:02:02.133Z,158.71
2023-05-05T06:03:02.144Z,163.92
2023-05-05T06:04:02.175Z,166.92
2023-05-05T06:05:02.106Z,168.69
2023-05-05T06:06:02.156Z,174.33
2023-05-05T06:07:02.562Z,174.56
2023-05-05T06:08:02.267Z,180.60
2023-05-05T06:09:02.239Z,184.04
2023-05-05T06:10:14.568Z,184.66
2023-05-05T06:11:03.241Z,184.93
2023-05-05T06:12:02.576Z,186.16
2023-05-05T06:13:02.234Z,189.38
2023-05-05T06:14:02.206Z,194.06
2023-05-05T06:15:02.191Z,202.42
2023-05-05T06:16:02.285Z,205.00
2023-05-05T06:17:02.172Z,208.01
2023-05-05T06:18:02.215Z,210.00
2023-05-05T06:19:02.202Z,209.53
2023-05-05T06:20:02.232Z,215.29
2023-05-05T06:21:02.303Z,216.99
2023-05-05T06:22:03.069Z,217.67
2023-05-05T06:23:02.418Z,219.77
2023-05-05T06:24:02.465Z,223.71
2023-05-05T06:25:02.520Z,225.14
2023-05-05T06:26:02.600Z,225.37
2023-05-05T06:27:02.666Z,228.44
2023-05-05T06:28:02.690Z,230.05
2023-05-05T06:29:02.741Z,230.97
2023-05-05T06:30:02.871Z,233.05
2023-05-05T06:31:02.874Z,231.16
2023-05-05T06:32:02.936Z,234.51
2023-05-05T06:33:02.993Z,236.07
2023-05-05T06:34:03.032Z,239.18
2023-05-05T06:35:03.074Z,240.29
2023-05-05T06:36:03.152Z,240.29
2023-05-05T06:37:03.593Z,241.42
2023-05-05T06:38:03.229Z,241.48
2023-05-05T06:39:03.280Z,243.89
2023-05-05T06:40:03.294Z,243.78
2023-05-05T06:41:03.359Z,246.36
2023-05-05T06:42:03.407Z,246.18
2023-05-05T06:43:03.461Z,249.10
2023-05-05T06:44:03.481Z,248.34
2023-05-05T06:45:03.514Z,247.08
2023-05-05T06:46:03.551Z,248.42
2023-05-05T06:47:04.153Z,249.39
2023-05-05T06:48:03.696Z,248.48
2023-05-05T06:49:03.641Z,249.41
2023-05-05T06:50:03.744Z,248.72
2023-05-05T06:51:03.754Z,247.77
2023-05-05T06:52:03.812Z,250.00
2023-05-05T06:53:03.788Z,249.35
2023-05-05T06:54:03.809Z,249.81
2023-05-05T06:55:03.926Z,249.93
2023-05-05T06:56:03.881Z,246.63
2023-05-05T06:57:03.899Z,242.99
2023-05-05T06:58:03.931Z,243.73
2023-05-05T06:59:03.952Z,246.15
2023-05-05T07:00:03.988Z,244.26
2023-05-05T07:01:04.085Z,241.18
2023-05-05T07:02:04.118Z,237.95
2023-05-05T07:03:04.147Z,239.11
2023-05-05T07:04:04.167Z,238.40
2023-05-05T07:05:04.185Z,237.95
2023-05-05T07:06:04.230Z,235.00
2023-05-05T07:07:04.260Z,233.90
2023-05-05T07:08:04.216Z,233.37
2023-05-05T07:09:04.266Z,231.65
2023-05-05T07:10:04.310Z,228.84
2023-05-05T07:11:04.367Z,229.71
2023-05-05T07:12:04.330Z,225.73
2023-05-05T07:13:04.420Z,225.82
2023-05-05T07:14:04.391Z,223.83
2023-05-05T07:15:12.394Z,220.91
2023-05-05T07:16:05.434Z,220.91
2023-05-05T07:17:04.372Z,218.20
2023-05-05T07:18:04.411Z,216.13
2023-05-05T07:19:04.361Z,217.84
2023-05-05T07:20:04.372Z,215.75
2023-05-05T07:21:04.464Z,215.20
2023-05-05T07:22:04.391Z,215.81
2023-05-05T07:23:04.347Z,217.70
2023-05-05T07:24:04.368Z,219.00
2023-05-05T07:25:04.332Z,217.05
2023-05-05T07:26:04.346Z,218.15
2023-05-05T07:27:04.410Z,219.89
2023-05-05T07:28:04.347Z,220.05
2023-05-05T07:29:04.357Z,222.83
2023-05-05T07:30:09.115Z,221.50
2023-05-05T07:31:05.289Z,221.67
2023-05-05T07:32:04.335Z,221.67
2023-05-05T07:33:04.363Z,221.72
2023-05-05T07:34:04.256Z,222.03
2023-05-05T07:35:04.275Z,223.51
2023-05-05T07:36:04.264Z,225.03
2023-05-05T07:37:04.245Z,225.97
2023-05-05T07:38:04.237Z,225.34
2023-05-05T07:39:07.668Z,225.98
2023-05-05T07:40:04.216Z,228.20
2023-05-05T07:41:04.222Z,226.22
2023-05-05T07:42:04.624Z,223.35
2023-05-05T07:43:04.357Z,220.88
2023-05-05T07:44:04.227Z,215.63
2023-05-05T07:45:04.235Z,214.52
2023-05-05T07:46:04.249Z,218.20
2023-05-05T07:47:04.615Z,218.30
2023-05-05T07:48:04.251Z,223.72
2023-05-05T07:49:04.223Z,225.76
2023-05-05T07:50:04.216Z,219.46
2023-05-05T07:51:04.192Z,213.67
2023-05-05T07:52:04.168Z,213.22
2023-05-05T07:53:13.523Z,210.82
2023-05-05T07:54:05.170Z,211.07
2023-05-05T07:55:04.112Z,211.43
2023-05-05T07:56:04.136Z,211.21
2023-05-05T07:57:04.116Z,206.80
2023-05-05T07:58:04.147Z,206.79
2023-05-05T07:59:04.171Z,210.08
2023-05-05T08:00:04.081Z,208.96
2023-05-05T08:01:04.098Z,208.06
2023-05-05T08:02:04.077Z,202.93
2023-05-05T08:03:04.275Z,204.98
2023-05-05T08:04:04.236Z,206.98
2023-05-05T08:05:04.080Z,204.39
2023-05-05T08:06:04.069Z,202.66
2023-05-05T08:07:04.057Z,202.27
2023-05-05T08:08:04.062Z,198.23
2023-05-05T08:09:04.041Z,197.10
2023-05-05T08:10:04.032Z,200.47
2023-05-05T08:11:04.041Z,198.12
2023-05-05T08:12:04.026Z,195.91
2023-05-05T08:13:04.025Z,196.42
2023-05-05T08:14:04.019Z,194.43
2023-05-05T08:15:04.288Z,193.42
2023-05-05T08:16:04.119Z,193.90
2023-05-05T08:17:04.115Z,195.04
2023-05-05T08:18:04.175Z,193.70
2023-05-05T08:19:06.252Z,193.97
2023-05-05T08:20:05.144Z,194.02
2023-05-05T08:21:04.103Z,194.05
2023-05-05T08:22:04.108Z,192.97
2023-05-05T08:23:04.119Z,193.95
2023-05-05T08:24:04.104Z,193.38
2023-05-05T08:25:04.114Z,195.40
2023-05-05T08:26:04.109Z,198.86
2023-05-05T08:27:04.111Z,198.29
2023-05-05T08:28:04.098Z,203.24
2023-05-05T08:29:04.093Z,204.87
2023-05-05T08:30:04.093Z,205.17
2023-05-05T08:31:04.152Z,207.08
2023-05-05T08:32:04.070Z,206.68
2023-05-05T08:33:04.126Z,205.41
2023-05-05T08:34:04.062Z,205.71
2023-05-05T08:35:04.029Z,204.88
2023-05-05T08:36:04.036Z,203.69
2023-05-05T08:37:04.061Z,200.28
2023-05-05T08:38:04.027Z,191.33
2023-05-05T08:39:04.045Z,183.91
2023-05-05T08:40:04.070Z,185.93
2023-05-05T08:41:04.082Z,185.64
2023-05-05T08:42:04.137Z,187.39
2023-05-05T08:43:04.148Z,183.48
2023-05-05T08:44:04.180Z,182.85
2023-05-05T08:45:04.209Z,180.77
2023-05-05T08:46:04.225Z,178.73
2023-05-05T08:47:04.784Z,175.76
2023-05-05T08:48:04.385Z,177.98
2023-05-05T08:49:04.333Z,177.41
2023-05-05T08:50:04.383Z,171.45
2023-05-05T08:51:05.568Z,171.69
2023-05-05T08:52:04.443Z,170.74
2023-05-05T08:53:04.550Z,168.96
2023-05-05T08:54:04.533Z,168.28
2023-05-05T08:55:04.588Z,166.12
2023-05-05T08:56:04.633Z,168.12
2023-05-05T08:57:04.673Z,163.60
2023-05-05T08:58:04.702Z,160.09
2023-05-05T08:59:04.762Z,160.36
2023-05-05T09:00:04.838Z,157.66
2023-05-05T09:01:04.918Z,154.78
2023-05-05T09:02:04.955Z,154.23
2023-05-05T09:03:05.280Z,150.38
2023-05-05T09:04:05.046Z,149.99
2023-05-05T09:05:05.164Z,147.34
2023-05-05T09:06:05.135Z,147.37
2023-05-05T09:07:05.190Z,141.71
2023-05-05T09:08:05.670Z,141.21
2023-05-05T09:09:05.282Z,140.90
2023-05-05T09:10:05.337Z,141.88
2023-05-05T09:11:05.357Z,142.66
2023-05-05T09:12:05.402Z,144.71
2023-05-05T09:13:05.556Z,140.16
2023-05-05T09:14:05.553Z,139.98
2023-05-05T09:15:05.771Z,138.99
2023-05-05T09:16:05.665Z,134.41
2023-05-05T09:17:05.708Z,138.37
2023-05-05T09:18:05.784Z,132.38
2023-05-05T09:19:05.769Z,131.20
2023-05-05T09:20:05.824Z,128.80
2023-05-05T09:21:05.875Z,132.49
2023-05-05T09:22:05.945Z,129.15
2023-05-05T09:23:06.141Z,125.07
2023-05-05T09:24:08.631Z,121.70
2023-05-05T09:25:06.374Z,121.99
2023-05-05T09:26:06.036Z,122.13
2023-05-05T09:27:06.066Z,123.32
2023-05-05T09:28:06.147Z,117.32
2023-05-05T09:29:06.034Z,116.93
2023-05-05T09:30:06.043Z,114.67
2023-05-05T09:31:06.056Z,115.94
2023-05-05T09:32:06.036Z,121.03
2023-05-05T09:33:06.079Z,132.70
2023-05-05T09:34:05.998Z,136.63
2023-05-05T09:35:06.149Z,146.42
2023-05-05T09:36:05.983Z,154.63
2023-05-05T09:37:06.220Z,166.62
2023-05-05T09:38:05.992Z,175.42
2023-05-05T09:39:05.961Z,182.14
2023-05-05T09:40:06.009Z,182.80
2023-05-05T09:41:05.945Z,189.89
2023-05-05T09:42:05.964Z,199.02
2023-05-05T09:43:06.171Z,200.81
2023-05-05T09:44:05.930Z,206.79
2023-05-05T09:45:06.017Z,208.40
2023-05-05T09:46:05.970Z,199.90
2023-05-05T09:47:18.130Z,207.22
2023-05-05T09:48:07.191Z,207.68
2023-05-05T09:49:05.906Z,209.41
2023-05-05T09:50:06.010Z,213.40
2023-05-05T09:51:05.861Z,220.22
2023-05-05T09:52:05.898Z,230.11
2023-05-05T09:53:05.893Z,234.13
2023-05-05T09:54:05.863Z,234.31
2023-05-05T09:55:05.869Z,241.87
2023-05-05T09:56:05.837Z,247.27
2023-05-05T09:57:05.874Z,250.00
2023-05-05T09:58:06.156Z,250.00
2023-05-05T09:59:05.898Z,249.25
2023-05-05T10:00:06.027Z,249.90
2023-05-05T10:01:06.062Z,250.00
2023-05-05T10:02:06.073Z,248.47
2023-05-05T10:03:06.174Z,249.16
2023-05-05T10:04:06.150Z,249.25
2023-05-05T10:05:06.292Z,249.84
2023-05-05T10:06:06.291Z,250.00
2023-05-05T10:07:06.398Z,247.98
2023-05-05T10:08:06.660Z,246.47
2023-05-05T10:09:06.440Z,248.48
2023-05-05T10:10:06.574Z,248.49
2023-05-05T10:11:06.515Z,248.56
2023-05-05T10:12:06.536Z,249.49
2023-05-05T10:13:06.653Z,249.62
2023-05-05T10:14:06.628Z,248.46
2023-05-05T10:15:06.728Z,249.33
2023-05-05T10:16:07.748Z,249.92
2023-05-05T10:17:06.761Z,249.09
2023-05-05T10:18:08.470Z,243.02
2023-05-05T10:19:06.853Z,240.23
2023-05-05T10:20:07.074Z,242.62
2023-05-05T10:21:06.956Z,246.07
2023-05-05T10:22:06.983Z,247.60
2023-05-05T10:23:07.176Z,249.78
2023-05-05T10:24:07.038Z,248.76
2023-05-05T10:25:07.091Z,249.16
2023-05-05T10:26:07.138Z,249.08
2023-05-05T10:27:07.167Z,248.00
2023-05-05T10:28:07.199Z,248.81
2023-05-05T10:29:07.208Z,247.23
2023-05-05T10:30:07.563Z,249.98
2023-05-05T10:31:16.527Z,248.45
2023-05-05T10:32:27.129Z,248.61
2023-05-05T10:34:07.318Z,248.95
2023-05-05T10:35:07.250Z,250.24
2023-05-05T10:36:07.258Z,252.01
2023-05-05T10:37:07.234Z,239.30
2023-05-05T10:38:07.247Z,205.36
2023-05-05T10:39:07.302Z,211.52
2023-05-05T10:40:07.609Z,224.82
2023-05-05T10:41:07.217Z,220.32
2023-05-05T10:42:07.256Z,222.42
2023-05-05T10:43:07.200Z,227.91
2023-05-05T10:44:07.194Z,224.74
2023-05-05T10:45:07.217Z,231.91
2023-05-05T10:46:07.241Z,232.14
2023-05-05T10:47:07.211Z,233.36
2023-05-05T10:48:07.239Z,220.68
2023-05-05T10:49:07.182Z,221.00
2023-05-05T10:50:07.372Z,212.34
2023-05-05T10:51:07.194Z,218.25
2023-05-05T10:52:07.176Z,224.37
2023-05-05T10:53:07.160Z,225.20
2023-05-05T10:54:07.202Z,234.50
2023-05-05T10:55:07.247Z,243.34
2023-05-05T10:56:07.143Z,250.00
2023-05-05T10:57:07.103Z,250.00
2023-05-05T10:58:07.128Z,248.88
2023-05-05T10:59:07.138Z,248.51
2023-05-05T11:00:07.357Z,247.31
2023-05-05T11:01:07.101Z,238.60
2023-05-05T11:02:07.073Z,232.72
2023-05-05T11:03:07.153Z,235.40
2023-05-05T11:04:07.151Z,240.87
2023-05-05T11:05:07.118Z,240.27
2023-05-05T11:06:07.098Z,242.95
2023-05-05T11:07:07.066Z,246.70
2023-05-05T11:08:07.067Z,245.59
2023-05-05T11:09:07.043Z,245.89
2023-05-05T11:10:07.287Z,246.43
2023-05-05T11:11:07.031Z,246.83
2023-05-05T11:12:07.082Z,246.45
2023-05-05T11:13:07.102Z,249.26
2023-05-05T11:14:07.007Z,246.70
2023-05-05T11:15:07.039Z,238.67
2023-05-05T11:16:07.016Z,228.69
2023-05-05T11:17:07.008Z,222.20
2023-05-05T11:18:07.959Z,221.20
2023-05-05T11:19:06.978Z,215.33
2023-05-05T11:20:07.147Z,213.88
2023-05-05T11:21:06.993Z,215.19
2023-05-05T11:22:06.968Z,215.74
2023-05-05T11:23:07.051Z,215.74
2023-05-05T11:24:06.982Z,215.85
2023-05-05T11:25:06.946Z,217.05
2023-05-05T11:26:06.942Z,220.34
2023-05-05T11:27:07.068Z,218.71
2023-05-05T11:28:07.202Z,219.17
2023-05-05T11:29:06.917Z,207.95
2023-05-05T11:30:07.123Z,212.17
2023-05-05T11:31:06.941Z,214.86
2023-05-05T11:32:06.915Z,182.40
2023-05-05T11:33:07.365Z,128.21
2023-05-05T11:34:06.920Z,116.83
2023-05-05T11:35:06.891Z,89.55
2023-05-05T11:36:07.358Z,87.89
2023-05-05T11:37:06.911Z,109.19
2023-05-05T11:38:06.922Z,127.36
2023-05-05T11:39:06.912Z,128.86
2023-05-05T11:40:07.000Z,130.64
2023-05-05T11:41:06.849Z,130.82
2023-05-05T11:42:10.488Z,131.62
2023-05-05T11:43:06.879Z,131.71
2023-05-05T11:44:06.848Z,132.21
2023-05-05T11:45:06.846Z,133.05
2023-05-05T11:46:06.918Z,134.38
2023-05-05T11:47:06.834Z,131.72
2023-05-05T11:48:07.064Z,129.50
2023-05-05T11:49:06.820Z,131.56
2023-05-05T11:50:07.001Z,127.09
2023-05-05T11:51:06.812Z,125.51
2023-05-05T11:52:06.825Z,126.71
2023-05-05T11:53:06.801Z,125.83
2023-05-05T11:54:06.778Z,126.53
2023-05-05T11:55:06.780Z,123.41
2023-05-05T11:56:06.839Z,118.52
2023-05-05T11:57:06.770Z,112.41
2023-05-05T11:58:06.731Z,112.31
2023-05-05T11:59:06.810Z,111.88
2023-05-05T12:00:06.810Z,106.90
2023-05-05T12:01:06.709Z,105.81
2023-05-05T12:02:06.765Z,103.10
2023-05-05T12:03:06.857Z,102.71
2023-05-05T12:04:06.833Z,99.91
2023-05-05T12:05:06.692Z,100.06
2023-05-05T12:06:06.673Z,100.87
2023-05-05T12:07:06.666Z,95.53
2023-05-05T12:08:06.705Z,95.33
2023-05-05T12:09:06.657Z,92.08
2023-05-05T12:10:06.843Z,95.29
2023-05-05T12:11:06.705Z,89.83
2023-05-05T12:12:06.733Z,85.46
2023-05-05T12:13:06.806Z,90.00
2023-05-05T12:14:06.868Z,88.65
2023-05-05T12:15:07.046Z,86.72
2023-05-05T12:16:06.984Z,81.72
2023-05-05T12:17:07.033Z,74.50
2023-05-05T12:18:07.118Z,74.44
2023-05-05T12:19:07.159Z,73.36
2023-05-05T12:20:07.274Z,67.94
2023-05-05T12:21:07.303Z,61.64
2023-05-05T12:22:07.321Z,58.57
2023-05-05T12:23:07.383Z,58.29
2023-05-05T12:24:07.421Z,53.66
2023-05-05T12:25:07.503Z,52.69
2023-05-05T12:26:07.543Z,52.30
2023-05-05T12:27:07.632Z,52.44
2023-05-05T12:28:07.674Z,49.87
2023-05-05T12:29:07.730Z,42.42
2023-05-05T12:30:07.933Z,43.41
2023-05-05T12:31:07.958Z,43.87
2023-05-05T12:32:07.947Z,41.06
2023-05-05T12:33:08.037Z,42.71
2023-05-05T12:34:08.050Z,40.56
2023-05-05T12:35:08.113Z,41.61
2023-05-05T12:36:08.116Z,42.83
2023-05-05T12:37:08.237Z,36.08
2023-05-05T12:38:08.281Z,35.02
2023-05-05T12:39:08.362Z,36.00
2023-05-05T12:40:08.536Z,33.39
2023-05-05T12:41:08.472Z,35.43